createdAt,value
2023-04-04T00:00:25.458Z,68.00
2023-04-04T00:02:52.166Z,68.00
2023-04-04T00:05:18.938Z,67.80
2023-04-04T00:07:48.719Z,67.70
2023-04-04T00:10:16.514Z,67.80
2023-04-04T00:12:43.861Z,68.10
2023-04-04T00:15:11.144Z,68.20
2023-04-04T00:17:38.096Z,68.10
2023-04-04T00:20:05.244Z,68.20
2023-04-04T00:22:32.116Z,68.20
2023-04-04T00:24:59.126Z,68.10
2023-04-04T00:27:26.289Z,68.00
2023-04-04T00:29:53.325Z,68.00
2023-04-04T00:32:20.298Z,67.90
2023-04-04T00:34:51.656Z,67.90
2023-04-04T00:37:18.407Z,67.90
2023-04-04T00:39:45.063Z,67.90
2023-04-04T00:42:11.956Z,68.00
2023-04-04T00:44:38.735Z,67.90
2023-04-04T00:47:05.471Z,68.00
2023-04-04T00:49:33.706Z,68.00
2023-04-04T00:52:00.395Z,67.90
2023-04-04T00:54:27.053Z,67.90
2023-04-04T00:56:55.658Z,67.90
2023-04-04T00:59:23.788Z,67.80
2023-04-04T01:01:51.096Z,67.70
2023-04-04T01:04:17.915Z,67.70
2023-04-04T01:06:45.785Z,67.90
2023-04-04T01:09:12.933Z,67.90
2023-04-04T01:11:39.959Z,67.90
2023-04-04T01:14:06.753Z,68.10
2023-04-04T01:16:33.546Z,68.00
2023-04-04T01:19:00.494Z,67.80
2023-04-04T01:21:28.310Z,67.70
2023-04-04T01:24:04.730Z,67.60
2023-04-04T01:26:31.885Z,67.50
2023-04-04T01:28:59.540Z,67.90
2023-04-04T01:31:32.654Z,67.80
2023-04-04T01:34:14.302Z,67.80
2023-04-04T01:37:01.954Z,67.80
2023-04-04T01:39:35.583Z,67.80
2023-04-04T01:42:03.349Z,67.80
2023-04-04T01:44:30.130Z,68.00
2023-04-04T01:46:56.773Z,68.00
2023-04-04T01:49:23.878Z,68.00
2023-04-04T01:51:52.320Z,68.00
2023-04-04T01:54:19.298Z,67.90
2023-04-04T01:56:46.624Z,67.90
2023-04-04T01:59:13.306Z,67.90
2023-04-04T02:01:40.042Z,68.00
2023-04-04T02:04:07.418Z,67.90
2023-04-04T02:06:34.138Z,67.80
2023-04-04T02:09:01.122Z,67.80
2023-04-04T02:11:28.043Z,67.90
2023-04-04T02:13:54.701Z,68.00
2023-04-04T02:16:21.565Z,67.90
2023-04-04T02:18:48.393Z,67.80
2023-04-04T02:21:15.201Z,67.70
2023-04-04T02:23:42.601Z,67.70
2023-04-04T02:26:09.199Z,67.80
2023-04-04T02:28:36.008Z,68.10
2023-04-04T02:31:03.033Z,68.00
2023-04-04T02:33:30.483Z,68.00
2023-04-04T02:35:59.024Z,68.10
2023-04-04T02:38:26.436Z,68.00
2023-04-04T02:40:53.384Z,67.90
2023-04-04T02:43:20.276Z,67.90
2023-04-04T02:45:50.300Z,67.90
2023-04-04T02:48:16.970Z,67.90
2023-04-04T02:50:43.920Z,68.00
2023-04-04T02:53:10.775Z,67.90
2023-04-04T02:55:37.414Z,67.90
2023-04-04T02:58:04.186Z,68.00
2023-04-04T03:00:31.259Z,68.00
2023-04-04T03:02:58.359Z,67.90
2023-04-04T03:05:26.757Z,68.00
2023-04-04T03:07:56.305Z,68.00
2023-04-04T03:10:23.932Z,68.00
2023-04-04T03:12:50.908Z,68.10
2023-04-04T03:15:17.639Z,68.10
2023-04-04T03:17:44.992Z,68.10
2023-04-04T03:20:13.588Z,68.10
2023-04-04T03:22:40.522Z,67.90
2023-04-04T03:25:07.567Z,67.90
2023-04-04T03:27:34.768Z,68.00
2023-04-04T03:30:02.307Z,67.90
2023-04-04T03:32:29.046Z,67.90
2023-04-04T03:34:55.763Z,67.80
2023-04-04T03:37:22.894Z,67.80
2023-04-04T03:39:49.559Z,67.70
2023-04-04T03:42:16.785Z,67.70
2023-04-04T03:44:43.395Z,67.70
2023-04-04T03:47:10.204Z,67.70
2023-04-04T03:49:36.865Z,67.80
2023-04-04T03:52:04.069Z,67.80
2023-04-04T03:54:30.825Z,67.80
2023-04-04T03:56:57.924Z,67.80
2023-04-04T03:59:24.827Z,67.70
2023-04-04T04:01:52.469Z,67.60
2023-04-04T04:04:19.202Z,67.70
2023-04-04T04:06:45.923Z,67.80
2023-04-04T04:09:12.707Z,67.70
2023-04-04T04:11:39.327Z,67.80
2023-04-04T04:14:06.015Z,67.80
2023-04-04T04:16:35.330Z,67.70
2023-04-04T04:19:02.289Z,67.80
2023-04-04T04:21:28.919Z,67.80
2023-04-04T04:23:55.582Z,67.80
2023-04-04T04:26:22.373Z,67.80
2023-04-04T04:28:49.126Z,67.80
2023-04-04T04:31:16.099Z,67.80
2023-04-04T04:33:42.713Z,67.80
2023-04-04T04:36:09.497Z,67.80
2023-04-04T04:38:36.648Z,67.60
2023-04-04T04:41:03.354Z,67.60
2023-04-04T04:43:30.033Z,67.60
2023-04-04T04:45:56.748Z,67.50
2023-04-04T04:48:23.481Z,67.60
2023-04-04T04:50:50.463Z,67.50
2023-04-04T04:53:17.055Z,67.60
2023-04-04T04:55:43.699Z,67.60
2023-04-04T04:58:11.006Z,67.50
2023-04-04T05:00:38.414Z,67.50
2023-04-04T05:03:08.425Z,67.50
2023-04-04T05:05:35.314Z,67.40
2023-04-04T05:08:02.780Z,67.40
2023-04-04T05:10:32.666Z,67.40
2023-04-04T05:12:59.300Z,67.40
2023-04-04T05:15:29.130Z,67.40
2023-04-04T05:17:55.865Z,67.40
2023-04-04T05:20:23.323Z,67.40
2023-04-04T05:22:51.512Z,67.40
2023-04-04T05:25:18.402Z,67.40
2023-04-04T05:27:49.069Z,67.50
2023-04-04T05:30:16.937Z,67.40
2023-04-04T05:32:45.639Z,67.50
2023-04-04T05:35:12.935Z,67.50
2023-04-04T05:37:40.673Z,67.50
2023-04-04T05:40:08.216Z,67.60
2023-04-04T05:42:35.182Z,67.60
2023-04-04T05:45:04.644Z,67.60
2023-04-04T05:47:31.377Z,67.60
2023-04-04T05:49:58.036Z,67.60
2023-04-04T05:52:25.340Z,67.60
2023-04-04T05:54:52.011Z,67.60
2023-04-04T05:57:18.637Z,67.60
2023-04-04T05:59:45.324Z,67.70
2023-04-04T06:02:12.353Z,67.80
2023-04-04T06:04:41.012Z,67.90
2023-04-04T06:07:07.840Z,67.90
2023-04-04T06:09:36.156Z,67.90
2023-04-04T06:12:04.736Z,67.90
2023-04-04T06:14:31.454Z,67.90
2023-04-04T06:16:58.736Z,67.90
2023-04-04T06:19:25.377Z,67.90
2023-04-04T06:21:51.999Z,67.90
2023-04-04T06:24:21.978Z,68.00
2023-04-04T06:26:51.547Z,68.00
2023-04-04T06:29:18.503Z,68.10
2023-04-04T06:31:45.802Z,68.30
2023-04-04T06:34:12.524Z,68.40
2023-04-04T06:36:39.207Z,68.50
2023-04-04T06:39:06.289Z,68.60
2023-04-04T06:41:32.930Z,68.70
2023-04-04T06:44:00.369Z,68.70
2023-04-04T06:46:27.587Z,68.70
2023-04-04T06:48:54.866Z,68.80
2023-04-04T06:51:21.759Z,68.80
2023-04-04T06:53:48.797Z,68.90
2023-04-04T06:56:15.947Z,68.90
2023-04-04T06:58:43.128Z,68.90
2023-04-04T07:01:09.792Z,69.00
2023-04-04T07:03:36.491Z,69.00
2023-04-04T07:06:04.470Z,69.10
2023-04-04T07:08:36.284Z,69.10
2023-04-04T07:11:04.521Z,69.30
2023-04-04T07:13:31.151Z,69.30
2023-04-04T07:15:57.726Z,69.30
2023-04-04T07:18:24.422Z,69.30
2023-04-04T07:20:51.224Z,69.30
2023-04-04T07:23:17.903Z,69.30
2023-04-04T07:25:44.865Z,69.20
2023-04-04T07:28:13.490Z,69.20
2023-04-04T07:30:40.704Z,69.30
2023-04-04T07:33:07.624Z,69.20
2023-04-04T07:35:35.217Z,69.30
2023-04-04T07:38:02.915Z,69.20
2023-04-04T07:40:29.716Z,69.10
2023-04-04T07:42:56.313Z,68.90
2023-04-04T07:45:23.185Z,68.90
2023-04-04T07:47:49.872Z,68.60
2023-04-04T07:50:16.925Z,68.50
2023-04-04T07:52:49.834Z,68.50
2023-04-04T07:55:16.893Z,68.30
2023-04-04T07:57:44.670Z,68.20
2023-04-04T08:00:11.981Z,68.20
2023-04-04T08:02:39.512Z,67.60
2023-04-04T08:05:06.926Z,68.00
2023-04-04T08:07:33.654Z,68.40
2023-04-04T08:10:00.462Z,68.60
2023-04-04T08:12:27.125Z,68.30
2023-04-04T08:14:53.825Z,68.70
2023-04-04T08:17:21.036Z,68.50
2023-04-04T08:19:47.709Z,68.60
2023-04-04T08:22:14.391Z,68.00
2023-04-04T08:24:41.227Z,68.00
2023-04-04T08:27:08.003Z,68.00
2023-04-04T08:29:34.833Z,68.40
2023-04-04T08:32:01.461Z,68.40
2023-04-04T08:34:28.632Z,68.30
2023-04-04T08:36:55.976Z,68.70
2023-04-04T08:39:22.730Z,68.70
2023-04-04T08:41:57.638Z,68.50
2023-04-04T08:44:26.115Z,68.40
2023-04-04T08:46:54.181Z,67.20
2023-04-04T08:49:23.581Z,68.00
2023-04-04T08:51:52.331Z,68.30
2023-04-04T08:54:20.899Z,67.30
2023-04-04T08:56:48.166Z,67.40
2023-04-04T08:59:18.953Z,68.00
2023-04-04T09:01:48.693Z,68.00
2023-04-04T09:04:16.179Z,68.60
2023-04-04T09:06:42.996Z,68.20
2023-04-04T09:09:10.002Z,68.10
2023-04-04T09:11:38.309Z,67.40
2023-04-04T09:14:05.081Z,67.70
2023-04-04T09:16:32.034Z,67.80
2023-04-04T09:18:58.783Z,67.70
2023-04-04T09:21:26.304Z,67.90
2023-04-04T09:24:03.118Z,66.90
2023-04-04T09:26:46.615Z,66.90
2023-04-04T09:29:13.909Z,65.70
2023-04-04T09:31:42.380Z,63.90
2023-04-04T09:34:09.023Z,65.70
2023-04-04T09:36:35.763Z,63.30
2023-04-04T09:39:03.664Z,65.30
2023-04-04T09:41:30.449Z,67.00
2023-04-04T09:43:58.304Z,66.60
2023-04-04T09:46:27.069Z,64.90
2023-04-04T09:48:55.440Z,61.90
2023-04-04T09:51:22.088Z,61.30
2023-04-04T09:53:48.968Z,61.70
2023-04-04T09:56:15.725Z,63.00
2023-04-04T09:59:02.761Z,62.80
2023-04-04T10:01:30.931Z,62.30
2023-04-04T10:03:58.306Z,59.60
2023-04-04T10:06:25.495Z,61.00
2023-04-04T10:08:52.721Z,62.80
2023-04-04T10:11:33.908Z,63.40
2023-04-04T10:14:03.601Z,60.80
2023-04-04T10:16:37.108Z,56.20
2023-04-04T10:19:07.742Z,61.10
2023-04-04T10:21:35.134Z,59.70
2023-04-04T10:24:08.731Z,61.40
2023-04-04T10:26:35.516Z,56.20
2023-04-04T10:29:03.675Z,59.40
2023-04-04T10:31:33.271Z,59.30
2023-04-04T10:34:12.381Z,61.20
2023-04-04T10:36:45.904Z,59.70
2023-04-04T10:39:25.069Z,59.50
2023-04-04T10:41:53.251Z,63.20
2023-04-04T10:44:39.990Z,62.30
2023-04-04T10:47:16.186Z,63.40
2023-04-04T10:49:45.825Z,61.00
2023-04-04T10:52:15.340Z,62.20
2023-04-04T10:54:43.918Z,61.10
2023-04-04T10:57:12.707Z,60.20
2023-04-04T11:00:10.479Z,62.30
2023-04-04T11:02:52.482Z,62.70
2023-04-04T11:05:30.480Z,62.80
2023-04-04T11:10:30.772Z,63.50
2023-04-04T11:13:12.821Z,64.40
2023-04-04T11:16:00.982Z,61.10
2023-04-04T11:18:42.787Z,63.10
2023-04-04T11:21:13.775Z,61.40
2023-04-04T11:23:49.715Z,62.90
2023-04-04T11:26:35.248Z,62.10
2023-04-04T11:29:08.578Z,63.30
2023-04-04T11:31:40.352Z,63.10
2023-04-04T11:34:12.696Z,65.30
2023-04-04T11:36:40.292Z,63.40
2023-04-04T11:39:15.550Z,63.60
2023-04-04T11:42:06.751Z,59.10
2023-04-04T11:44:42.976Z,60.80
2023-04-04T11:47:13.624Z,63.90
2023-04-04T11:49:44.805Z,63.80
2023-04-04T11:52:14.322Z,65.80
2023-04-04T11:54:45.232Z,66.70
2023-04-04T11:57:16.229Z,66.20
2023-04-04T11:59:48.446Z,66.60
2023-04-04T12:02:27.411Z,66.80
2023-04-04T12:04:55.337Z,60.60
2023-04-04T12:07:24.732Z,62.10
2023-04-04T12:09:56.370Z,63.50
2023-04-04T12:12:24.694Z,63.30
2023-04-04T12:17:20.201Z,60.50
2023-04-04T12:19:47.109Z,62.00
2023-04-04T12:22:14.016Z,64.80
2023-04-04T12:24:41.235Z,63.20
2023-04-04T12:27:15.514Z,63.10
2023-04-04T12:29:45.491Z,59.60
2023-04-04T12:32:14.265Z,63.30
2023-04-04T12:34:49.888Z,61.70
2023-04-04T12:37:19.438Z,58.00
2023-04-04T12:39:50.625Z,58.90
2023-04-04T12:42:24.759Z,59.90
2023-04-04T12:44:53.774Z,59.20
2023-04-04T12:47:22.464Z,62.50
2023-04-04T12:49:49.852Z,64.40
2023-04-04T12:52:20.494Z,63.70
2023-04-04T12:54:50.973Z,65.00
2023-04-04T12:57:25.528Z,65.20
2023-04-04T12:59:54.532Z,64.80
2023-04-04T13:02:22.944Z,65.80
2023-04-04T13:04:55.913Z,66.40
2023-04-04T13:07:27.799Z,65.40
2023-04-04T13:09:57.820Z,64.00
2023-04-04T13:12:25.049Z,64.50
2023-04-04T13:15:04.980Z,66.70
2023-04-04T13:17:44.659Z,62.80
2023-04-04T13:20:13.458Z,59.60
2023-04-04T13:22:41.318Z,61.10
2023-04-04T13:25:09.515Z,63.50
2023-04-04T13:27:37.463Z,62.20
2023-04-04T13:30:06.257Z,60.40
2023-04-04T13:32:33.667Z,63.50
2023-04-04T13:35:00.350Z,64.20
2023-04-04T13:37:28.187Z,66.20
2023-04-04T13:39:54.919Z,65.80
2023-04-04T13:42:23.274Z,66.80
2023-04-04T13:44:49.952Z,65.80
2023-04-04T13:47:16.947Z,66.80
2023-04-04T13:49:43.626Z,66.10
2023-04-04T13:52:10.585Z,65.80
2023-04-04T13:54:37.208Z,65.70
2023-04-04T13:57:03.871Z,67.40
2023-04-04T13:59:30.652Z,66.30
2023-04-04T14:01:57.718Z,67.20
2023-04-04T14:04:24.577Z,64.80
2023-04-04T14:07:00.239Z,65.20
2023-04-04T14:09:26.970Z,64.70
2023-04-04T14:11:53.583Z,65.20
2023-04-04T14:14:20.479Z,66.60
2023-04-04T14:16:47.276Z,66.90
2023-04-04T14:19:13.986Z,67.40
2023-04-04T14:21:40.614Z,67.30
2023-04-04T14:24:07.411Z,65.60
2023-04-04T14:26:35.082Z,62.20
2023-04-04T14:29:01.806Z,61.70
2023-04-04T14:31:28.835Z,61.10
2023-04-04T14:33:55.596Z,60.10
2023-04-04T14:36:24.391Z,61.90
2023-04-04T14:38:50.994Z,61.80
2023-04-04T14:41:17.769Z,61.40
2023-04-04T14:43:44.944Z,62.30
2023-04-04T14:46:11.836Z,63.40
2023-04-04T14:48:38.790Z,59.60
2023-04-04T14:51:05.614Z,59.50
2023-04-04T14:53:34.487Z,61.10
2023-04-04T14:56:01.108Z,60.90
2023-04-04T14:58:27.785Z,62.80
2023-04-04T15:00:54.815Z,60.00
2023-04-04T15:03:21.794Z,59.20
2023-04-04T15:05:49.311Z,59.60
2023-04-04T15:08:15.969Z,60.20
2023-04-04T15:10:42.933Z,59.00
2023-04-04T15:13:09.880Z,58.90
2023-04-04T15:15:36.496Z,61.20
2023-04-04T15:18:03.261Z,60.80
2023-04-04T15:20:30.011Z,61.50
2023-04-04T15:22:56.601Z,62.60
2023-04-04T15:25:23.376Z,62.70
2023-04-04T15:27:50.001Z,59.80
2023-04-04T15:30:16.673Z,61.70
2023-04-04T15:32:43.297Z,62.80
2023-04-04T15:35:20.831Z,63.80
2023-04-04T15:37:49.156Z,63.50
2023-04-04T15:40:16.810Z,62.80
2023-04-04T15:42:44.133Z,62.40
2023-04-04T15:45:12.140Z,59.60
2023-04-04T15:47:39.488Z,60.50
2023-04-04T15:50:07.186Z,62.70
2023-04-04T15:52:34.046Z,60.50
2023-04-04T15:55:01.010Z,61.60
2023-04-04T15:57:27.657Z,62.10
2023-04-04T15:59:54.239Z,62.20
2023-04-04T16:02:20.899Z,61.00
2023-04-04T16:04:47.506Z,59.00
2023-04-04T16:07:14.192Z,59.80
2023-04-04T16:09:40.851Z,62.50
2023-04-04T16:12:07.639Z,62.60
2023-04-04T16:14:34.326Z,63.10
2023-04-04T16:17:06.369Z,63.40
2023-04-04T16:19:34.048Z,61.80
2023-04-04T16:22:00.728Z,63.90
2023-04-04T16:24:27.891Z,62.40
2023-04-04T16:26:54.597Z,62.40
2023-04-04T16:29:21.607Z,61.60
2023-04-04T16:31:48.467Z,62.90
2023-04-04T16:34:15.521Z,62.70
2023-04-04T16:36:42.194Z,61.40
2023-04-04T16:39:08.907Z,62.50
2023-04-04T16:41:35.634Z,61.90
2023-04-04T16:44:02.283Z,63.20
2023-04-04T16:46:28.959Z,64.20
2023-04-04T16:48:55.668Z,62.10
2023-04-04T16:51:25.465Z,62.80
2023-04-04T16:53:52.047Z,62.30
2023-04-04T16:56:18.756Z,61.60
2023-04-04T16:58:45.780Z,61.90
2023-04-04T17:01:16.655Z,61.70
2023-04-04T17:03:43.464Z,60.70
2023-04-04T17:06:10.601Z,61.20
2023-04-04T17:08:37.269Z,61.50
2023-04-04T17:11:04.169Z,61.40
2023-04-04T17:13:31.373Z,60.90
2023-04-04T17:15:58.266Z,62.10
2023-04-04T17:18:25.000Z,61.90
2023-04-04T17:20:52.253Z,62.20
2023-04-04T17:23:18.885Z,61.40
2023-04-04T17:25:45.515Z,62.50
2023-04-04T17:28:12.125Z,62.70
2023-04-04T17:30:39.041Z,62.30
2023-04-04T17:33:06.015Z,61.90
2023-04-04T17:35:32.693Z,63.00
2023-04-04T17:37:59.311Z,62.60
2023-04-04T17:40:25.907Z,63.50
2023-04-04T17:42:52.535Z,63.70
2023-04-04T17:45:19.396Z,63.80
2023-04-04T17:47:46.203Z,64.10
2023-04-04T17:50:13.027Z,64.30
2023-04-04T17:52:39.776Z,64.20
2023-04-04T17:55:08.675Z,63.60
2023-04-04T17:57:35.922Z,63.50
2023-04-04T18:00:03.467Z,64.70
2023-04-04T18:02:30.115Z,64.10
2023-04-04T18:04:58.425Z,64.60
2023-04-04T18:07:25.918Z,64.80
2023-04-04T18:09:52.539Z,64.40
2023-04-04T18:12:19.225Z,64.50
2023-04-04T18:14:45.946Z,65.00
2023-04-04T18:17:13.194Z,65.60
2023-04-04T18:19:41.422Z,65.00
2023-04-04T18:22:08.411Z,65.50
2023-04-04T18:24:35.102Z,65.90
2023-04-04T18:27:01.872Z,65.60
2023-04-04T18:29:31.030Z,65.40
2023-04-04T18:32:01.256Z,64.70
2023-04-04T18:34:28.017Z,65.00
2023-04-04T18:36:54.641Z,65.90
2023-04-04T18:39:21.235Z,65.60
2023-04-04T18:41:48.029Z,65.80
2023-04-04T18:44:14.988Z,66.00
2023-04-04T18:46:42.278Z,66.00
2023-04-04T18:49:09.062Z,65.80
2023-04-04T18:51:35.724Z,65.90
2023-04-04T18:54:03.474Z,65.90
2023-04-04T18:56:30.146Z,66.00
2023-04-04T18:58:56.869Z,66.10
2023-04-04T19:01:24.368Z,66.60
2023-04-04T19:03:53.764Z,66.20
2023-04-04T19:06:26.628Z,66.10
2023-04-04T19:08:57.418Z,65.40
2023-04-04T19:11:24.544Z,66.20
2023-04-04T19:13:51.170Z,66.20
2023-04-04T19:16:18.827Z,67.10
2023-04-04T19:18:45.647Z,66.40
2023-04-04T19:21:12.218Z,66.30
2023-04-04T19:23:38.971Z,66.90
2023-04-04T19:26:06.590Z,67.10
2023-04-04T19:28:33.320Z,66.80
2023-04-04T19:31:01.772Z,67.00
2023-04-04T19:33:32.448Z,66.60
2023-04-04T19:36:11.717Z,66.90
2023-04-04T19:38:40.078Z,66.70
2023-04-04T19:41:18.992Z,67.40
2023-04-04T19:43:47.123Z,67.20
2023-04-04T19:46:28.935Z,67.50
2023-04-04T19:48:57.306Z,66.90
2023-04-04T19:51:23.947Z,66.50
2023-04-04T19:53:53.552Z,66.90
2023-04-04T19:56:23.098Z,66.80
2023-04-04T19:59:10.849Z,67.10
2023-04-04T20:01:44.593Z,67.30
2023-04-04T20:04:14.123Z,67.20
2023-04-04T20:06:42.396Z,67.70
2023-04-04T20:09:34.439Z,67.50
2023-04-04T20:12:01.203Z,67.90
2023-04-04T20:14:28.745Z,67.70
2023-04-04T20:16:55.406Z,67.70
2023-04-04T20:19:26.170Z,67.70
2023-04-04T20:21:52.951Z,67.20
2023-04-04T20:24:21.023Z,67.60
2023-04-04T20:26:55.344Z,67.70
2023-04-04T20:29:30.338Z,67.30
2023-04-04T20:32:08.376Z,67.60
2023-04-04T20:34:39.264Z,67.40
2023-04-04T20:37:25.922Z,67.60
2023-04-04T20:40:09.286Z,67.60
2023-04-04T20:42:40.724Z,67.70
2023-04-04T20:45:10.255Z,68.00
2023-04-04T20:47:46.782Z,67.80
2023-04-04T20:50:17.024Z,67.60
2023-04-04T20:52:52.849Z,67.60
2023-04-04T20:55:20.916Z,67.70
2023-04-04T20:57:47.826Z,67.90
2023-04-04T21:00:29.754Z,67.80
2023-04-04T21:03:00.255Z,68.00
2023-04-04T21:05:29.207Z,67.90
2023-04-04T21:07:56.279Z,68.20
2023-04-04T21:10:28.995Z,68.40
2023-04-04T21:12:56.695Z,67.80
2023-04-04T21:15:28.563Z,68.50
2023-04-04T21:18:00.124Z,68.50
2023-04-04T21:20:45.862Z,68.30
2023-04-04T21:23:27.512Z,68.30
2023-04-04T21:26:02.173Z,68.30
2023-04-04T21:28:29.970Z,68.50
2023-04-04T21:30:56.615Z,69.50
2023-04-04T21:33:23.283Z,68.70
2023-04-04T21:35:52.485Z,68.60
2023-04-04T21:38:29.771Z,68.80
2023-04-04T21:41:00.393Z,68.60
2023-04-04T21:43:27.881Z,68.70
2023-04-04T21:45:57.858Z,68.80
2023-04-04T21:48:24.859Z,68.80
2023-04-04T21:50:51.693Z,68.90
2023-04-04T21:53:18.549Z,69.00
2023-04-04T21:55:45.434Z,69.00
2023-04-04T21:58:12.840Z,69.00
2023-04-04T22:00:39.850Z,68.90
2023-04-04T22:03:07.239Z,69.00
2023-04-04T22:05:38.904Z,69.00
2023-04-04T22:08:06.530Z,69.00
2023-04-04T22:10:33.460Z,69.00
2023-04-04T22:13:00.183Z,68.90
2023-04-04T22:15:29.755Z,68.90
2023-04-04T22:18:03.672Z,68.90
2023-04-04T22:20:32.102Z,69.00
2023-04-04T22:22:59.445Z,69.00
2023-04-04T22:25:27.216Z,69.10
2023-04-04T22:27:53.980Z,69.10
2023-04-04T22:30:21.636Z,69.10
2023-04-04T22:32:48.692Z,69.10
2023-04-04T22:35:15.387Z,69.20
2023-04-04T22:37:42.021Z,69.10
2023-04-04T22:40:13.182Z,69.10
2023-04-04T22:42:39.762Z,69.10
2023-04-04T22:45:07.123Z,69.20
2023-04-04T22:47:34.048Z,69.00
2023-04-04T22:50:04.752Z,69.10
2023-04-04T22:52:32.025Z,69.00
2023-04-04T22:54:59.768Z,69.10
2023-04-04T22:57:26.450Z,69.10
2023-04-04T22:59:53.031Z,69.10
2023-04-04T23:02:19.621Z,69.20
2023-04-04T23:04:47.412Z,69.10
2023-04-04T23:07:14.290Z,69.20
2023-04-04T23:09:41.363Z,69.10
2023-04-04T23:12:08.154Z,69.00
2023-04-04T23:14:38.889Z,69.10
2023-04-04T23:17:07.035Z,69.10
2023-04-04T23:19:33.936Z,69.00
2023-04-04T23:22:00.718Z,69.20
2023-04-04T23:24:27.690Z,69.20
2023-04-04T23:26:54.351Z,69.20
2023-04-04T23:29:21.059Z,69.20
2023-04-04T23:31:48.014Z,69.10
2023-04-04T23:34:14.917Z,69.10
2023-04-04T23:36:41.640Z,69.10
2023-04-04T23:39:08.301Z,69.20
2023-04-04T23:41:34.961Z,69.20
2023-04-04T23:44:01.605Z,69.20
2023-04-04T23:46:30.548Z,69.10
2023-04-04T23:48:57.246Z,69.00
2023-04-04T23:51:25.617Z,69.10
2023-04-04T23:53:52.650Z,69.00
2023-04-04T23:56:19.369Z,68.90
2023-04-04T23:58:46.120Z,69.00
